sensor_id;sensor_type;location;lat;lon;timestamp;P1;durP1;ratioP1;P2;durP2;ratioP2
74799;SDS011;63326;45.088;7.658;2023-02-15T00:01:50;14.82;;;8.63;;
74799;SDS011;63326;45.088;7.658;2023-02-15T00:04:18;14.98;;;7.95;;
74799;SDS011;63326;45.088;7.658;2023-02-15T00:06:47;19.45;;;9.27;;
74799;SDS011;63326;45.088;7.658;2023-02-15T00:09:14;14.38;;;8.85;;
74799;SDS011;63326;45.088;7.658;2023-02-15T00:11:41;15.73;;;10.77;;
74799;SDS011;63326;45.088;7.658;2023-02-15T00:14:19;16.88;;;6.57;;
74799;SDS011;63326;45.088;7.658;2023-02-15T00:16:48;18.70;;;8.60;;
74799;SDS011;63326;45.088;7.658;2023-02-15T00:19:17;13.45;;;7.88;;
74799;SDS011;63326;45.088;7.658;2023-02-15T00:21:46;12.23;;;8.40;;
74799;SDS011;63326;45.088;7.658;2023-02-15T00:24:14;12.57;;;8.30;;
74799;SDS011;63326;45.088;7.658;2023-02-15T00:26:42;14.50;;;8.35;;
74799;SDS011;63326;45.088;7.658;2023-02-15T00:29:10;20.95;;;9.88;;
74799;SDS011;63326;45.088;7.658;2023-02-15T00:31:39;11.27;;;6.32;;
74799;SDS011;63326;45.088;7.658;2023-02-15T00:34:07;29.40;;;9.45;;
74799;SDS011;63326;45.088;7.658;2023-02-15T00:36:38;14.80;;;7.20;;
74799;SDS011;63326;45.088;7.658;2023-02-15T00:39:05;19.65;;;8.90;;
74799;SDS011;63326;45.088;7.658;2023-02-15T00:41:34;15.75;;;7.55;;
74799;SDS011;63326;45.088;7.658;2023-02-15T00:46:29;14.13;;;7.32;;
74799;SDS011;63326;45.088;7.658;2023-02-15T00:48:56;20.27;;;7.68;;
74799;SDS011;63326;45.088;7.658;2023-02-15T00:51:23;11.55;;;7.03;;
74799;SDS011;63326;45.088;7.658;2023-02-15T00:53:50;10.27;;;6.32;;
74799;SDS011;63326;45.088;7.658;2023-02-15T00:56:17;17.00;;;9.43;;
74799;SDS011;63326;45.088;7.658;2023-02-15T00:58:44;16.67;;;8.90;;
74799;SDS011;63326;45.088;7.658;2023-02-15T01:01:12;19.60;;;7.80;;
74799;SDS011;63326;45.088;7.658;2023-02-15T01:03:41;13.88;;;7.30;;
74799;SDS011;63326;45.088;7.658;2023-02-15T01:06:08;13.65;;;8.13;;
74799;SDS011;63326;45.088;7.658;2023-02-15T01:08:36;13.75;;;10.25;;
74799;SDS011;63326;45.088;7.658;2023-02-15T01:11:05;14.15;;;7.15;;
74799;SDS011;63326;45.088;7.658;2023-02-15T01:13:36;17.25;;;8.23;;
74799;SDS011;63326;45.088;7.658;2023-02-15T01:16:04;19.42;;;7.13;;
74799;SDS011;63326;45.088;7.658;2023-02-15T01:18:31;11.88;;;7.30;;
74799;SDS011;63326;45.088;7.658;2023-02-15T01:20:59;16.90;;;6.68;;
74799;SDS011;63326;45.088;7.658;2023-02-15T01:23:26;14.13;;;7.70;;
74799;SDS011;63326;45.088;7.658;2023-02-15T01:25:52;19.90;;;8.50;;
74799;SDS011;63326;45.088;7.658;2023-02-15T01:28:19;12.95;;;6.60;;
74799;SDS011;63326;45.088;7.658;2023-02-15T01:30:46;15.52;;;8.27;;
74799;SDS011;63326;45.088;7.658;2023-02-15T01:33:15;13.90;;;7.55;;
74799;SDS011;63326;45.088;7.658;2023-02-15T01:35:47;22.98;;;7.80;;
74799;SDS011;63326;45.088;7.658;2023-02-15T01:38:13;14.38;;;7.40;;
74799;SDS011;63326;45.088;7.658;2023-02-15T01:40:40;6.53;;;4.47;;
74799;SDS011;63326;45.088;7.658;2023-02-15T01:43:11;10.82;;;6.03;;
74799;SDS011;63326;45.088;7.658;2023-02-15T01:45:38;9.07;;;5.22;;
74799;SDS011;63326;45.088;7.658;2023-02-15T01:48:22;14.48;;;6.35;;
74799;SDS011;63326;45.088;7.658;2023-02-15T01:50:55;11.15;;;6.18;;
74799;SDS011;63326;45.088;7.658;2023-02-15T01:53:27;16.25;;;6.90;;
74799;SDS011;63326;45.088;7.658;2023-02-15T01:56:06;12.30;;;5.72;;
74799;SDS011;63326;45.088;7.658;2023-02-15T01:58:38;12.55;;;5.95;;
74799;SDS011;63326;45.088;7.658;2023-02-15T02:01:05;11.05;;;5.57;;
74799;SDS011;63326;45.088;7.658;2023-02-15T02:03:57;9.10;;;5.07;;
74799;SDS011;63326;45.088;7.658;2023-02-15T02:06:26;11.75;;;6.57;;
74799;SDS011;63326;45.088;7.658;2023-02-15T02:08:53;12.10;;;5.20;;
74799;SDS011;63326;45.088;7.658;2023-02-15T02:11:21;10.50;;;4.90;;
74799;SDS011;63326;45.088;7.658;2023-02-15T02:13:48;9.63;;;5.18;;
74799;SDS011;63326;45.088;7.658;2023-02-15T02:27:25;7.78;;;5.28;;
74799;SDS011;63326;45.088;7.658;2023-02-15T02:38:53;15.93;;;6.05;;
74799;SDS011;63326;45.088;7.658;2023-02-15T02:49:51;9.48;;;5.78;;
74799;SDS011;63326;45.088;7.658;2023-02-15T02:57:40;5.35;;;3.60;;
74799;SDS011;63326;45.088;7.658;2023-02-15T03:00:14;12.80;;;6.72;;
74799;SDS011;63326;45.088;7.658;2023-02-15T03:02:42;15.73;;;4.78;;
74799;SDS011;63326;45.088;7.658;2023-02-15T03:05:13;16.05;;;7.80;;
74799;SDS011;63326;45.088;7.658;2023-02-15T03:07:46;13.05;;;5.95;;
74799;SDS011;63326;45.088;7.658;2023-02-15T03:10:17;9.75;;;6.53;;
74799;SDS011;63326;45.088;7.658;2023-02-15T03:12:49;11.52;;;6.82;;
74799;SDS011;63326;45.088;7.658;2023-02-15T03:15:20;13.35;;;6.47;;
74799;SDS011;63326;45.088;7.658;2023-02-15T03:17:55;9.57;;;4.95;;
74799;SDS011;63326;45.088;7.658;2023-02-15T03:20:29;7.93;;;5.20;;
74799;SDS011;63326;45.088;7.658;2023-02-15T03:23:07;16.55;;;6.95;;
74799;SDS011;63326;45.088;7.658;2023-02-15T03:25:44;7.00;;;3.60;;
74799;SDS011;63326;45.088;7.658;2023-02-15T03:28:18;7.75;;;5.55;;
74799;SDS011;63326;45.088;7.658;2023-02-15T03:30:51;10.52;;;5.15;;
74799;SDS011;63326;45.088;7.658;2023-02-15T03:33:20;10.60;;;5.55;;
74799;SDS011;63326;45.088;7.658;2023-02-15T03:35:59;7.10;;;4.45;;
74799;SDS011;63326;45.088;7.658;2023-02-15T03:38:34;8.80;;;4.85;;
74799;SDS011;63326;45.088;7.658;2023-02-15T03:41:09;10.30;;;5.32;;
74799;SDS011;63326;45.088;7.658;2023-02-15T03:48:47;8.02;;;4.32;;
74799;SDS011;63326;45.088;7.658;2023-02-15T03:51:19;7.60;;;4.72;;
74799;SDS011;63326;45.088;7.658;2023-02-15T03:54:03;12.82;;;5.30;;
74799;SDS011;63326;45.088;7.658;2023-02-15T03:56:30;6.50;;;3.83;;
74799;SDS011;63326;45.088;7.658;2023-02-15T03:58:57;12.15;;;5.28;;
74799;SDS011;63326;45.088;7.658;2023-02-15T04:04:36;6.95;;;4.78;;
74799;SDS011;63326;45.088;7.658;2023-02-15T04:07:05;9.27;;;4.43;;
74799;SDS011;63326;45.088;7.658;2023-02-15T04:09:34;12.07;;;4.88;;
74799;SDS011;63326;45.088;7.658;2023-02-15T04:12:19;8.40;;;3.53;;
74799;SDS011;63326;45.088;7.658;2023-02-15T04:14:46;12.10;;;5.88;;
74799;SDS011;63326;45.088;7.658;2023-02-15T04:17:31;6.18;;;3.63;;
74799;SDS011;63326;45.088;7.658;2023-02-15T04:19:58;12.80;;;3.95;;
74799;SDS011;63326;45.088;7.658;2023-02-15T04:22:43;6.88;;;4.07;;
74799;SDS011;63326;45.088;7.658;2023-02-15T04:25:28;6.03;;;4.03;;
74799;SDS011;63326;45.088;7.658;2023-02-15T04:27:55;14.32;;;4.75;;
74799;SDS011;63326;45.088;7.658;2023-02-15T04:30:23;4.45;;;3.67;;
74799;SDS011;63326;45.088;7.658;2023-02-15T04:32:51;4.30;;;2.67;;
74799;SDS011;63326;45.088;7.658;2023-02-15T04:35:17;5.80;;;3.65;;
74799;SDS011;63326;45.088;7.658;2023-02-15T04:37:44;7.13;;;3.63;;
74799;SDS011;63326;45.088;7.658;2023-02-15T04:40:12;7.25;;;4.53;;
74799;SDS011;63326;45.088;7.658;2023-02-15T04:42:39;12.27;;;4.32;;
74799;SDS011;63326;45.088;7.658;2023-02-15T04:45:07;8.82;;;4.70;;
74799;SDS011;63326;45.088;7.658;2023-02-15T04:47:34;6.95;;;3.80;;
74799;SDS011;63326;45.088;7.658;2023-02-15T04:50:00;7.25;;;3.55;;
74799;SDS011;63326;45.088;7.658;2023-02-15T04:52:27;9.57;;;5.60;;
74799;SDS011;63326;45.088;7.658;2023-02-15T04:54:53;6.38;;;4.53;;
74799;SDS011;63326;45.088;7.658;2023-02-15T04:57:20;12.32;;;5.15;;
74799;SDS011;63326;45.088;7.658;2023-02-15T04:59:47;12.13;;;4.40;;
74799;SDS011;63326;45.088;7.658;2023-02-15T05:02:13;8.73;;;5.00;;
74799;SDS011;63326;45.088;7.658;2023-02-15T05:04:40;5.05;;;3.70;;
74799;SDS011;63326;45.088;7.658;2023-02-15T05:07:07;5.03;;;3.67;;
74799;SDS011;63326;45.088;7.658;2023-02-15T05:09:33;9.82;;;3.72;;
74799;SDS011;63326;45.088;7.658;2023-02-15T05:12:00;6.00;;;4.32;;
74799;SDS011;63326;45.088;7.658;2023-02-15T05:14:27;5.00;;;3.53;;
74799;SDS011;63326;45.088;7.658;2023-02-15T05:16:53;7.57;;;3.92;;
74799;SDS011;63326;45.088;7.658;2023-02-15T05:19:20;10.90;;;4.68;;
74799;SDS011;63326;45.088;7.658;2023-02-15T05:21:47;10.10;;;5.10;;
74799;SDS011;63326;45.088;7.658;2023-02-15T05:24:13;7.10;;;4.93;;
74799;SDS011;63326;45.088;7.658;2023-02-15T05:26:59;8.60;;;4.38;;
74799;SDS011;63326;45.088;7.658;2023-02-15T05:29:44;7.72;;;4.57;;
74799;SDS011;63326;45.088;7.658;2023-02-15T05:32:12;6.28;;;2.85;;
74799;SDS011;63326;45.088;7.658;2023-02-15T05:34:39;5.13;;;4.00;;
74799;SDS011;63326;45.088;7.658;2023-02-15T05:37:06;7.22;;;4.35;;
74799;SDS011;63326;45.088;7.658;2023-02-15T05:39:33;8.30;;;5.63;;
74799;SDS011;63326;45.088;7.658;2023-02-15T05:42:00;7.00;;;3.78;;
74799;SDS011;63326;45.088;7.658;2023-02-15T05:44:27;6.35;;;2.88;;
74799;SDS011;63326;45.088;7.658;2023-02-15T05:46:54;6.30;;;3.45;;
74799;SDS011;63326;45.088;7.658;2023-02-15T05:49:21;3.10;;;2.67;;
74799;SDS011;63326;45.088;7.658;2023-02-15T05:51:48;11.75;;;4.88;;
74799;SDS011;63326;45.088;7.658;2023-02-15T05:54:14;5.90;;;4.60;;
74799;SDS011;63326;45.088;7.658;2023-02-15T05:56:41;6.95;;;3.88;;
74799;SDS011;63326;45.088;7.658;2023-02-15T05:59:08;5.28;;;4.75;;
74799;SDS011;63326;45.088;7.658;2023-02-15T06:01:34;12.63;;;4.50;;
74799;SDS011;63326;45.088;7.658;2023-02-15T06:04:01;7.40;;;4.72;;
74799;SDS011;63326;45.088;7.658;2023-02-15T06:06:28;9.85;;;6.22;;
74799;SDS011;63326;45.088;7.658;2023-02-15T06:08:55;5.25;;;3.15;;
74799;SDS011;63326;45.088;7.658;2023-02-15T06:11:21;6.55;;;3.60;;
74799;SDS011;63326;45.088;7.658;2023-02-15T06:13:48;4.68;;;3.22;;
74799;SDS011;63326;45.088;7.658;2023-02-15T06:16:15;10.35;;;4.68;;
74799;SDS011;63326;45.088;7.658;2023-02-15T06:18:42;8.13;;;3.33;;
74799;SDS011;63326;45.088;7.658;2023-02-15T06:21:09;5.53;;;3.00;;
74799;SDS011;63326;45.088;7.658;2023-02-15T06:23:36;3.53;;;3.15;;
74799;SDS011;63326;45.088;7.658;2023-02-15T06:26:02;4.28;;;2.75;;
74799;SDS011;63326;45.088;7.658;2023-02-15T06:28:29;5.70;;;4.20;;
74799;SDS011;63326;45.088;7.658;2023-02-15T06:30:56;7.82;;;4.32;;
74799;SDS011;63326;45.088;7.658;2023-02-15T06:33:23;4.18;;;3.15;;
74799;SDS011;63326;45.088;7.658;2023-02-15T06:35:50;8.48;;;4.72;;
74799;SDS011;63326;45.088;7.658;2023-02-15T06:38:16;7.93;;;4.15;;
74799;SDS011;63326;45.088;7.658;2023-02-15T06:40:43;7.60;;;5.18;;
74799;SDS011;63326;45.088;7.658;2023-02-15T06:43:10;8.93;;;3.88;;
74799;SDS011;63326;45.088;7.658;2023-02-15T06:45:36;6.13;;;3.15;;
74799;SDS011;63326;45.088;7.658;2023-02-15T06:48:03;13.40;;;5.32;;
74799;SDS011;63326;45.088;7.658;2023-02-15T06:50:33;8.52;;;4.00;;
74799;SDS011;63326;45.088;7.658;2023-02-15T06:53:00;9.98;;;5.85;;
74799;SDS011;63326;45.088;7.658;2023-02-15T06:55:27;6.75;;;4.65;;
74799;SDS011;63326;45.088;7.658;2023-02-15T06:57:53;8.15;;;4.47;;
74799;SDS011;63326;45.088;7.658;2023-02-15T07:00:20;5.90;;;4.20;;
74799;SDS011;63326;45.088;7.658;2023-02-15T07:02:57;7.85;;;5.10;;
74799;SDS011;63326;45.088;7.658;2023-02-15T07:05:25;13.43;;;7.47;;
74799;SDS011;63326;45.088;7.658;2023-02-15T07:07:57;7.88;;;4.95;;
74799;SDS011;63326;45.088;7.658;2023-02-15T07:10:24;14.15;;;6.93;;
74799;SDS011;63326;45.088;7.658;2023-02-15T07:12:52;12.75;;;5.68;;
74799;SDS011;63326;45.088;7.658;2023-02-15T07:15:19;13.80;;;6.30;;
74799;SDS011;63326;45.088;7.658;2023-02-15T07:17:48;11.40;;;5.30;;
74799;SDS011;63326;45.088;7.658;2023-02-15T07:20:16;9.98;;;6.05;;
74799;SDS011;63326;45.088;7.658;2023-02-15T07:22:47;10.85;;;5.72;;
74799;SDS011;63326;45.088;7.658;2023-02-15T07:25:14;13.40;;;7.85;;
74799;SDS011;63326;45.088;7.658;2023-02-15T07:27:41;14.18;;;7.82;;
74799;SDS011;63326;45.088;7.658;2023-02-15T07:30:10;11.75;;;7.00;;
74799;SDS011;63326;45.088;7.658;2023-02-15T07:32:38;10.65;;;6.18;;
74799;SDS011;63326;45.088;7.658;2023-02-15T07:35:25;15.70;;;8.70;;
74799;SDS011;63326;45.088;7.658;2023-02-15T07:37:51;21.30;;;11.25;;
74799;SDS011;63326;45.088;7.658;2023-02-15T07:40:19;21.77;;;12.60;;
74799;SDS011;63326;45.088;7.658;2023-02-15T07:42:48;15.68;;;9.35;;
74799;SDS011;63326;45.088;7.658;2023-02-15T07:45:18;18.60;;;10.75;;
74799;SDS011;63326;45.088;7.658;2023-02-15T07:47:45;21.67;;;11.48;;
74799;SDS011;63326;45.088;7.658;2023-02-15T07:50:11;21.77;;;11.35;;
74799;SDS011;63326;45.088;7.658;2023-02-15T07:52:38;24.70;;;13.25;;
74799;SDS011;63326;45.088;7.658;2023-02-15T07:55:05;21.15;;;12.75;;
74799;SDS011;63326;45.088;7.658;2023-02-15T07:57:32;26.50;;;13.50;;
74799;SDS011;63326;45.088;7.658;2023-02-15T07:59:58;27.85;;;14.63;;
74799;SDS011;63326;45.088;7.658;2023-02-15T08:02:25;30.42;;;17.20;;
74799;SDS011;63326;45.088;7.658;2023-02-15T08:04:52;31.70;;;14.75;;
74799;SDS011;63326;45.088;7.658;2023-02-15T08:07:18;32.40;;;15.88;;
74799;SDS011;63326;45.088;7.658;2023-02-15T08:09:45;28.90;;;15.50;;
74799;SDS011;63326;45.088;7.658;2023-02-15T08:12:12;24.48;;;14.82;;
74799;SDS011;63326;45.088;7.658;2023-02-15T08:14:38;27.20;;;16.10;;
74799;SDS011;63326;45.088;7.658;2023-02-15T08:17:05;25.15;;;15.23;;
74799;SDS011;63326;45.088;7.658;2023-02-15T08:19:32;37.15;;;16.77;;
74799;SDS011;63326;45.088;7.658;2023-02-15T08:22:00;31.38;;;16.98;;
74799;SDS011;63326;45.088;7.658;2023-02-15T08:24:30;29.48;;;16.02;;
74799;SDS011;63326;45.088;7.658;2023-02-15T08:26:58;29.95;;;17.10;;
74799;SDS011;63326;45.088;7.658;2023-02-15T08:29:26;27.65;;;16.92;;
74799;SDS011;63326;45.088;7.658;2023-02-15T08:31:55;31.38;;;16.50;;
74799;SDS011;63326;45.088;7.658;2023-02-15T08:34:33;31.95;;;17.13;;
74799;SDS011;63326;45.088;7.658;2023-02-15T08:37:01;39.38;;;18.08;;
74799;SDS011;63326;45.088;7.658;2023-02-15T08:39:28;36.03;;;18.60;;
74799;SDS011;63326;45.088;7.658;2023-02-15T08:41:55;30.15;;;17.42;;
74799;SDS011;63326;45.088;7.658;2023-02-15T08:44:21;36.92;;;18.20;;
74799;SDS011;63326;45.088;7.658;2023-02-15T08:46:49;32.38;;;19.25;;
74799;SDS011;63326;45.088;7.658;2023-02-15T08:49:20;35.55;;;20.85;;
74799;SDS011;63326;45.088;7.658;2023-02-15T08:51:48;32.28;;;18.60;;
74799;SDS011;63326;45.088;7.658;2023-02-15T08:54:17;34.28;;;19.35;;
74799;SDS011;63326;45.088;7.658;2023-02-15T08:56:46;31.42;;;19.17;;
74799;SDS011;63326;45.088;7.658;2023-02-15T08:59:17;30.73;;;19.45;;
74799;SDS011;63326;45.088;7.658;2023-02-15T09:01:48;34.90;;;20.17;;
74799;SDS011;63326;45.088;7.658;2023-02-15T09:04:17;26.50;;;16.55;;
74799;SDS011;63326;45.088;7.658;2023-02-15T09:06:45;34.17;;;20.70;;
74799;SDS011;63326;45.088;7.658;2023-02-15T09:09:15;36.88;;;22.10;;
74799;SDS011;63326;45.088;7.658;2023-02-15T09:11:43;38.00;;;20.73;;
74799;SDS011;63326;45.088;7.658;2023-02-15T09:14:12;40.03;;;22.25;;
74799;SDS011;63326;45.088;7.658;2023-02-15T09:16:42;39.08;;;21.13;;
74799;SDS011;63326;45.088;7.658;2023-02-15T09:19:15;36.75;;;22.88;;
74799;SDS011;63326;45.088;7.658;2023-02-15T09:21:43;34.80;;;21.00;;
74799;SDS011;63326;45.088;7.658;2023-02-15T09:24:11;34.60;;;21.02;;
74799;SDS011;63326;45.088;7.658;2023-02-15T09:26:40;35.15;;;20.95;;
74799;SDS011;63326;45.088;7.658;2023-02-15T09:29:09;36.72;;;20.52;;
74799;SDS011;63326;45.088;7.658;2023-02-15T09:31:39;35.40;;;19.60;;
74799;SDS011;63326;45.088;7.658;2023-02-15T09:34:07;35.97;;;19.88;;
74799;SDS011;63326;45.088;7.658;2023-02-15T09:36:35;34.85;;;20.45;;
74799;SDS011;63326;45.088;7.658;2023-02-15T09:39:11;36.33;;;23.25;;
74799;SDS011;63326;45.088;7.658;2023-02-15T10:20:59;36.38;;;22.42;;
74799;SDS011;63326;45.088;7.658;2023-02-15T10:23:38;39.63;;;24.38;;
74799;SDS011;63326;45.088;7.658;2023-02-15T10:26:20;37.25;;;22.10;;
74799;SDS011;63326;45.088;7.658;2023-02-15T10:28:53;36.78;;;21.50;;
74799;SDS011;63326;45.088;7.658;2023-02-15T10:31:41;35.55;;;20.65;;
74799;SDS011;63326;45.088;7.658;2023-02-15T10:34:39;34.28;;;22.58;;
74799;SDS011;63326;45.088;7.658;2023-02-15T10:37:27;31.00;;;17.85;;
74799;SDS011;63326;45.088;7.658;2023-02-15T10:42:57;34.40;;;21.27;;
74799;SDS011;63326;45.088;7.658;2023-02-15T10:51:16;31.60;;;20.98;;
74799;SDS011;63326;45.088;7.658;2023-02-15T10:56:40;30.65;;;19.73;;
74799;SDS011;63326;45.088;7.658;2023-02-15T10:59:21;31.88;;;19.33;;
74799;SDS011;63326;45.088;7.658;2023-02-15T11:02:31;31.42;;;21.35;;
74799;SDS011;63326;45.088;7.658;2023-02-15T11:07:53;33.88;;;21.27;;
74799;SDS011;63326;45.088;7.658;2023-02-15T11:10:37;35.88;;;22.85;;
74799;SDS011;63326;45.088;7.658;2023-02-15T11:13:09;29.63;;;21.90;;
74799;SDS011;63326;45.088;7.658;2023-02-15T11:16:24;32.55;;;21.90;;
74799;SDS011;63326;45.088;7.658;2023-02-15T11:18:38;31.95;;;21.92;;
74799;SDS011;63326;45.088;7.658;2023-02-15T11:23:41;32.80;;;20.27;;
74799;SDS011;63326;45.088;7.658;2023-02-15T11:26:15;31.80;;;22.33;;
74799;SDS011;63326;45.088;7.658;2023-02-15T11:28:51;32.22;;;21.35;;
74799;SDS011;63326;45.088;7.658;2023-02-15T11:31:22;30.70;;;20.73;;
74799;SDS011;63326;45.088;7.658;2023-02-15T11:33:52;34.60;;;19.15;;
74799;SDS011;63326;45.088;7.658;2023-02-15T11:36:25;29.20;;;21.40;;
74799;SDS011;63326;45.088;7.658;2023-02-15T11:38:59;35.25;;;20.23;;
74799;SDS011;63326;45.088;7.658;2023-02-15T11:41:34;31.17;;;19.80;;
74799;SDS011;63326;45.088;7.658;2023-02-15T11:44:10;33.53;;;23.10;;
74799;SDS011;63326;45.088;7.658;2023-02-15T11:46:42;33.67;;;22.42;;
74799;SDS011;63326;45.088;7.658;2023-02-15T11:49:28;28.95;;;17.42;;
74799;SDS011;63326;45.088;7.658;2023-02-15T11:51:56;28.60;;;17.85;;
74799;SDS011;63326;45.088;7.658;2023-02-15T11:54:26;30.42;;;19.63;;
74799;SDS011;63326;45.088;7.658;2023-02-15T11:57:00;30.13;;;17.63;;
74799;SDS011;63326;45.088;7.658;2023-02-15T11:59:36;29.25;;;16.55;;
74799;SDS011;63326;45.088;7.658;2023-02-15T12:02:13;27.05;;;15.52;;
74799;SDS011;63326;45.088;7.658;2023-02-15T12:04:46;21.73;;;15.70;;
74799;SDS011;63326;45.088;7.658;2023-02-15T12:15:41;25.50;;;16.85;;
74799;SDS011;63326;45.088;7.658;2023-02-15T12:21:06;30.00;;;16.05;;
74799;SDS011;63326;45.088;7.658;2023-02-15T12:24:04;31.27;;;20.10;;
74799;SDS011;63326;45.088;7.658;2023-02-15T12:26:44;26.50;;;16.52;;
74799;SDS011;63326;45.088;7.658;2023-02-15T12:29:21;29.42;;;19.67;;
74799;SDS011;63326;45.088;7.658;2023-02-15T12:31:53;28.77;;;16.75;;
74799;SDS011;63326;45.088;7.658;2023-02-15T12:34:22;29.70;;;20.58;;
74799;SDS011;63326;45.088;7.658;2023-02-15T12:36:53;28.48;;;17.05;;
74799;SDS011;63326;45.088;7.658;2023-02-15T12:39:25;29.25;;;15.88;;
74799;SDS011;63326;45.088;7.658;2023-02-15T12:44:29;31.35;;;20.25;;
74799;SDS011;63326;45.088;7.658;2023-02-15T12:49:42;27.85;;;16.77;;
74799;SDS011;63326;45.088;7.658;2023-02-15T12:54:46;28.60;;;19.20;;
74799;SDS011;63326;45.088;7.658;2023-02-15T12:59:50;28.80;;;20.63;;
74799;SDS011;63326;45.088;7.658;2023-02-15T13:02:27;28.17;;;20.95;;
74799;SDS011;63326;45.088;7.658;2023-02-15T13:04:57;29.45;;;19.20;;
74799;SDS011;63326;45.088;7.658;2023-02-15T13:07:34;27.05;;;17.33;;
74799;SDS011;63326;45.088;7.658;2023-02-15T13:10:02;28.13;;;19.33;;
74799;SDS011;63326;45.088;7.658;2023-02-15T13:12:30;32.60;;;22.05;;
74799;SDS011;63326;45.088;7.658;2023-02-15T13:14:58;28.67;;;17.77;;
74799;SDS011;63326;45.088;7.658;2023-02-15T13:17:28;28.75;;;21.15;;
74799;SDS011;63326;45.088;7.658;2023-02-15T13:19:59;31.55;;;22.48;;
74799;SDS011;63326;45.088;7.658;2023-02-15T13:22:35;27.65;;;19.55;;
74799;SDS011;63326;45.088;7.658;2023-02-15T13:25:19;32.47;;;20.85;;
74799;SDS011;63326;45.088;7.658;2023-02-15T13:27:54;28.40;;;20.35;;
74799;SDS011;63326;45.088;7.658;2023-02-15T13:33:05;26.23;;;19.98;;
74799;SDS011;63326;45.088;7.658;2023-02-15T13:35:42;27.75;;;17.13;;
74799;SDS011;63326;45.088;7.658;2023-02-15T13:38:21;28.90;;;21.27;;
74799;SDS011;63326;45.088;7.658;2023-02-15T13:40:55;29.58;;;21.30;;
74799;SDS011;63326;45.088;7.658;2023-02-15T14:03:25;29.95;;;18.90;;
74799;SDS011;63326;45.088;7.658;2023-02-15T14:06:11;27.10;;;18.27;;
74799;SDS011;63326;45.088;7.658;2023-02-15T14:11:35;24.55;;;19.23;;
74799;SDS011;63326;45.088;7.658;2023-02-15T14:14:37;25.17;;;17.63;;
74799;SDS011;63326;45.088;7.658;2023-02-15T14:25:59;26.70;;;19.08;;
74799;SDS011;63326;45.088;7.658;2023-02-15T14:31:15;21.92;;;18.95;;
74799;SDS011;63326;45.088;7.658;2023-02-15T14:33:53;22.30;;;13.73;;
74799;SDS011;63326;45.088;7.658;2023-02-15T14:36:22;23.20;;;15.77;;
74799;SDS011;63326;45.088;7.658;2023-02-15T14:39:11;24.70;;;16.35;;
74799;SDS011;63326;45.088;7.658;2023-02-15T14:42:10;22.67;;;14.93;;
74799;SDS011;63326;45.088;7.658;2023-02-15T14:49:44;20.02;;;15.80;;
74799;SDS011;63326;45.088;7.658;2023-02-15T14:52:12;19.40;;;13.48;;
74799;SDS011;63326;45.088;7.658;2023-02-15T15:08:20;17.63;;;11.07;;
74799;SDS011;63326;45.088;7.658;2023-02-15T15:15:56;18.65;;;11.18;;
74799;SDS011;63326;45.088;7.658;2023-02-15T15:18:47;16.02;;;11.93;;
74799;SDS011;63326;45.088;7.658;2023-02-15T15:30:49;16.75;;;10.82;;
74799;SDS011;63326;45.088;7.658;2023-02-15T15:49:34;16.60;;;10.82;;
74799;SDS011;63326;45.088;7.658;2023-02-15T15:52:22;20.15;;;11.40;;
74799;SDS011;63326;45.088;7.658;2023-02-15T15:54:51;16.40;;;10.38;;
74799;SDS011;63326;45.088;7.658;2023-02-15T15:57:26;17.80;;;10.05;;
74799;SDS011;63326;45.088;7.658;2023-02-15T16:00:00;16.98;;;9.73;;
74799;SDS011;63326;45.088;7.658;2023-02-15T16:02:48;23.17;;;12.07;;
74799;SDS011;63326;45.088;7.658;2023-02-15T16:07:46;14.65;;;9.07;;
74799;SDS011;63326;45.088;7.658;2023-02-15T16:10:20;15.95;;;7.28;;
74799;SDS011;63326;45.088;7.658;2023-02-15T16:12:48;18.67;;;9.32;;
74799;SDS011;63326;45.088;7.658;2023-02-15T16:17:51;19.52;;;10.60;;
74799;SDS011;63326;45.088;7.658;2023-02-15T16:20:22;22.98;;;10.10;;
74799;SDS011;63326;45.088;7.658;2023-02-15T16:23:03;22.27;;;9.65;;
74799;SDS011;63326;45.088;7.658;2023-02-15T16:28:28;17.83;;;8.98;;
74799;SDS011;63326;45.088;7.658;2023-02-15T16:31:06;15.82;;;9.60;;
74799;SDS011;63326;45.088;7.658;2023-02-15T16:36:26;18.95;;;10.07;;
74799;SDS011;63326;45.088;7.658;2023-02-15T16:41:21;19.73;;;9.65;;
74799;SDS011;63326;45.088;7.658;2023-02-15T16:43:53;19.30;;;8.68;;
74799;SDS011;63326;45.088;7.658;2023-02-15T16:48:54;14.25;;;8.25;;
74799;SDS011;63326;45.088;7.658;2023-02-15T16:51:25;20.58;;;9.23;;
74799;SDS011;63326;45.088;7.658;2023-02-15T16:53:55;17.48;;;9.80;;
74799;SDS011;63326;45.088;7.658;2023-02-15T16:56:32;19.30;;;9.57;;
74799;SDS011;63326;45.088;7.658;2023-02-15T17:01:28;16.90;;;9.40;;
74799;SDS011;63326;45.088;7.658;2023-02-15T17:04:10;19.58;;;7.63;;
74799;SDS011;63326;45.088;7.658;2023-02-15T17:06:39;15.05;;;8.55;;
74799;SDS011;63326;45.088;7.658;2023-02-15T17:09:12;21.85;;;11.13;;
74799;SDS011;63326;45.088;7.658;2023-02-15T17:11:44;27.10;;;11.68;;
74799;SDS011;63326;45.088;7.658;2023-02-15T17:14:12;21.52;;;10.00;;
74799;SDS011;63326;45.088;7.658;2023-02-15T17:17:20;26.92;;;12.43;;
74799;SDS011;63326;45.088;7.658;2023-02-15T17:19:47;29.38;;;13.20;;
74799;SDS011;63326;45.088;7.658;2023-02-15T17:22:19;20.48;;;12.70;;
74799;SDS011;63326;45.088;7.658;2023-02-15T17:24:48;23.23;;;9.60;;
74799;SDS011;63326;45.088;7.658;2023-02-15T17:27:24;19.75;;;9.93;;
74799;SDS011;63326;45.088;7.658;2023-02-15T17:30:00;22.45;;;11.00;;
74799;SDS011;63326;45.088;7.658;2023-02-15T17:32:30;20.80;;;10.23;;
74799;SDS011;63326;45.088;7.658;2023-02-15T17:35:04;18.38;;;9.50;;
74799;SDS011;63326;45.088;7.658;2023-02-15T17:42:51;17.58;;;7.43;;
74799;SDS011;63326;45.088;7.658;2023-02-15T17:45:18;20.33;;;9.32;;
74799;SDS011;63326;45.088;7.658;2023-02-15T17:47:47;17.60;;;8.63;;
74799;SDS011;63326;45.088;7.658;2023-02-15T17:50:17;24.63;;;9.18;;
74799;SDS011;63326;45.088;7.658;2023-02-15T17:52:47;18.83;;;7.95;;
74799;SDS011;63326;45.088;7.658;2023-02-15T17:55:15;16.33;;;7.53;;
74799;SDS011;63326;45.088;7.658;2023-02-15T17:58:08;16.38;;;7.80;;
74799;SDS011;63326;45.088;7.658;2023-02-15T18:00:43;20.48;;;8.65;;
74799;SDS011;63326;45.088;7.658;2023-02-15T18:03:44;20.70;;;8.63;;
74799;SDS011;63326;45.088;7.658;2023-02-15T18:06:32;15.20;;;9.25;;
74799;SDS011;63326;45.088;7.658;2023-02-15T18:09:19;19.80;;;8.70;;
74799;SDS011;63326;45.088;7.658;2023-02-15T18:12:22;16.80;;;8.43;;
74799;SDS011;63326;45.088;7.658;2023-02-15T18:14:56;16.20;;;7.75;;
74799;SDS011;63326;45.088;7.658;2023-02-15T18:17:27;20.67;;;7.78;;
74799;SDS011;63326;45.088;7.658;2023-02-15T18:19:57;20.80;;;7.60;;
74799;SDS011;63326;45.088;7.658;2023-02-15T18:22:26;19.30;;;7.78;;
74799;SDS011;63326;45.088;7.658;2023-02-15T18:24:54;18.60;;;7.78;;
74799;SDS011;63326;45.088;7.658;2023-02-15T18:27:21;21.20;;;8.93;;
74799;SDS011;63326;45.088;7.658;2023-02-15T18:29:47;22.80;;;9.30;;
74799;SDS011;63326;45.088;7.658;2023-02-15T18:32:18;23.08;;;8.13;;
74799;SDS011;63326;45.088;7.658;2023-02-15T18:34:51;21.45;;;9.18;;
74799;SDS011;63326;45.088;7.658;2023-02-15T18:37:21;20.00;;;9.27;;
74799;SDS011;63326;45.088;7.658;2023-02-15T18:39:50;18.50;;;9.50;;
74799;SDS011;63326;45.088;7.658;2023-02-15T18:42:24;18.90;;;8.95;;
74799;SDS011;63326;45.088;7.658;2023-02-15T18:44:54;19.08;;;9.68;;
74799;SDS011;63326;45.088;7.658;2023-02-15T18:47:25;23.65;;;10.20;;
74799;SDS011;63326;45.088;7.658;2023-02-15T18:49:52;17.45;;;7.68;;